Time;durP1;ratioP1;P1;durP2;ratioP2;P2;SDS_P1;SDS_P2;PMS_P1;PMS_P2;Temp;Humidity;BMP_temperature;BMP_pressure;BME280_temperature;BME280_humidity;BME280_pressure;Samples;Min_cycle;Max_cycle;Signal;HPM_P1;HPM_P2
2023/12/14 09:10:06;;;;;;;21.40;11.18;;;;;;;5.18;100.00;96387.66;2109599;27;20541;-67
2023/12/14 09:24:52;;;;;;;15.43;9.80;;;;;;;;;;2100320;27;20562;-67
2023/12/14 09:30:28;;;;;;;26.90;10.00;;;;;;;5.60;100.00;96427.94;2084108;28;20577;-67
2023/12/14 09:31:29;;;;;;;18.52;9.25;;;;;;;5.56;100.00;96429.75;2082132;28;20205;-66
2023/12/14 09:37:19;;;;;;;23.77;11.93;;;;;;;5.72;100.00;96438.78;2099418;27;20913;-67
2023/12/14 09:38:20;;;;;;;13.82;8.90;;;;;;;5.80;100.00;96448.97;2096294;28;21083;-67
2023/12/14 09:44:32;;;;;;;18.20;8.73;;;;;;;5.86;100.00;96443.59;2093146;27;21547;-67
2023/12/14 09:45:33;;;;;;;15.10;9.02;;;;;;;6.08;100.00;96461.13;2092469;28;20196;-67
2023/12/14 09:52:24;;;;;;;15.63;8.65;;;;;;;6.02;100.00;96456.16;2084361;27;20572;-65
2023/12/14 09:53:26;;;;;;;13.32;8.57;;;;;;;5.97;100.00;96458.84;2086160;28;20724;-67
2023/12/14 09:54:28;;;;;;;12.38;8.40;;;;;;;6.04;100.00;96462.13;2069656;28;20285;-67
2023/12/14 10:00:34;;;;;;;16.73;9.25;;;;;;;6.23;100.00;96459.00;2108125;27;20579;-65
2023/12/14 10:01:35;;;;;;;14.68;9.90;;;;;;;6.46;100.00;96468.66;2115517;28;20298;-65
2023/12/14 10:02:37;;;;;;;14.70;8.70;;;;;;;6.65;100.00;96466.31;2110816;28;20222;-66
2023/12/14 10:03:38;;;;;;;16.20;8.50;;;;;;;6.64;100.00;96468.06;2104570;28;20200;-66
2023/12/14 10:04:40;;;;;;;11.82;7.85;;;;;;;6.95;100.00;96469.66;2101354;27;20231;-66
2023/12/14 10:05:41;;;;;;;12.57;7.05;;;;;;;7.17;100.00;96468.94;2102455;28;20579;-66
2023/12/14 10:06:45;;;;;;;10.80;6.60;;;;;;;7.21;100.00;96475.72;2098923;28;20204;-66
2023/12/14 10:07:47;;;;;;;12.13;6.40;;;;;;;7.18;100.00;96470.66;2101076;28;20883;-66
2023/12/14 10:08:57;;;;;;;10.40;6.40;;;;;;;7.07;100.00;96478.78;2101853;28;20224;-66
2023/12/14 10:10:13;;;;;;;10.02;5.85;;;;;;;6.97;100.00;96477.41;2102608;28;20702;-66
2023/12/14 10:11:16;;;;;;;10.88;6.55;;;;;;;6.99;100.00;96475.63;2101815;28;20191;-68
2023/12/14 10:12:18;;;;;;;10.20;6.05;;;;;;;7.10;100.00;96481.31;2101550;28;20210;-68
2023/12/14 10:13:35;;;;;;;9.73;5.53;;;;;;;7.15;100.00;96487.19;2101244;28;20201;-68
2023/12/14 10:14:38;;;;;;;8.98;5.20;;;;;;;7.19;100.00;96488.78;2100292;28;20226;-68
2023/12/14 10:15:44;;;;;;;9.50;3.95;;;;;;;7.12;100.00;96484.72;2100800;28;20196;-68
2023/12/14 10:16:45;;;;;;;9.40;5.47;;;;;;;6.98;100.00;96492.94;2101663;28;20719;-68
2023/12/14 10:17:53;;;;;;;7.95;5.70;;;;;;;6.85;100.00;96491.63;2101883;28;20225;-68
2023/12/14 10:18:56;;;;;;;9.38;5.65;;;;;;;6.78;100.00;96491.00;2098616;28;20701;-68
2023/12/14 10:28:14;;;;;;;13.73;5.75;;;;;;;6.63;100.00;96502.69;2091818;28;20581;-60
2023/12/14 10:34:23;;;;;;;9.80;4.82;;;;;;;6.66;100.00;96517.31;2086275;27;20574;-62
2023/12/14 10:41:33;;;;;;;10.15;5.13;;;;;;;6.52;100.00;96516.00;2083165;28;20577;-63
2023/12/14 10:50:44;;;;;;;12.18;5.28;;;;;;;6.33;100.00;96517.47;2089426;28;20561;-59
2023/12/14 10:55:02;;;;;;;9.20;4.35;;;;;;;6.67;100.00;96514.69;2091685;27;20560;-61
2023/12/14 10:56:10;;;;;;;10.90;4.43;;;;;;;6.69;100.00;96523.28;2088767;28;20202;-61
2023/12/14 10:57:12;;;;;;;8.05;5.30;;;;;;;6.71;100.00;96510.25;2081413;28;20197;-62
2023/12/14 10:58:14;;;;;;;12.73;4.88;;;;;;;6.66;100.00;96515.56;2079890;28;20200;-62
2023/12/14 10:59:17;;;;;;;6.82;4.40;;;;;;;6.68;100.00;96526.75;2074919;28;20228;-62
2023/12/14 11:00:18;;;;;;;7.82;4.32;;;;;;;6.65;100.00;96531.19;2071374;28;20293;-61
2023/12/14 11:12:27;;;;;;;4.05;2.08;;;;;;;5.47;100.00;96549.16;2090236;28;20556;-63
2023/12/14 11:20:27;;;;;;;4.78;2.20;;;;;;;6.00;100.00;96559.03;2081950;28;20582;-59
2023/12/14 11:28:27;;;;;;;3.08;1.70;;;;;;;6.15;100.00;96561.19;2083106;28;20937;-59
2023/12/14 11:32:40;;;;;;;3.63;2.15;;;;;;;5.90;100.00;96568.75;2085374;28;20545;-61
2023/12/14 11:33:41;;;;;;;3.55;2.15;;;;;;;5.99;100.00;96576.31;2082298;28;20229;-61
2023/12/14 11:34:48;;;;;;;3.90;2.38;;;;;;;5.75;100.00;96559.66;2082464;28;20232;-61
2023/12/14 11:35:52;;;;;;;5.93;2.10;;;;;;;6.14;100.00;96574.19;2081635;28;20212;-62
2023/12/14 11:36:56;;;;;;;3.85;2.33;;;;;;;6.32;100.00;96578.88;2080146;28;20198;-62
2023/12/14 11:37:59;;;;;;;4.00;2.65;;;;;;;6.35;100.00;96564.97;2083312;28;20205;-61
2023/12/14 11:42:59;;;;;;;5.53;2.25;;;;;;;5.84;99.88;96576.69;2081394;27;20550;-61
2023/12/14 11:44:01;;;;;;;7.82;2.15;;;;;;;6.02;99.58;96580.56;2080126;28;20197;-62
2023/12/14 11:45:03;;;;;;;2.95;1.80;;;;;;;5.79;100.00;96575.97;2073750;28;20215;-62
2023/12/14 11:46:04;;;;;;;8.68;2.50;;;;;;;6.14;100.00;96580.22;2074842;28;20721;-62
2023/12/14 11:55:52;;;;;;;9.82;4.50;;;;;;;6.12;100.00;96571.66;2108009;27;20554;-68
2023/12/14 11:56:54;;;;;;;7.50;5.03;;;;;;;6.18;100.00;96578.38;2105408;28;20305;-66
2023/12/14 11:57:56;;;;;;;7.97;4.65;;;;;;;6.27;100.00;96582.47;2086922;28;20197;-66
2023/12/14 11:58:57;;;;;;;8.75;4.90;;;;;;;6.40;100.00;96588.16;2086145;28;20193;-61
2023/12/14 11:59:59;;;;;;;8.43;4.30;;;;;;;6.63;100.00;96588.34;2074404;28;20773;-61
2023/12/14 12:01:14;;;;;;;8.73;4.97;;;;;;;6.84;100.00;96597.22;2073530;28;20235;-61
2023/12/14 12:02:23;;;;;;;9.57;4.88;;;;;;;7.29;100.00;96592.38;2072967;28;20887;-60
2023/12/14 12:03:25;;;;;;;10.57;4.28;;;;;;;7.19;100.00;96563.25;2074654;28;20194;-60
2023/12/14 12:04:27;;;;;;;7.45;3.72;;;;;;;7.31;100.00;96588.84;2073560;28;20221;-63
2023/12/14 12:05:43;;;;;;;7.78;4.75;;;;;;;7.43;100.00;96584.13;2074042;28;20198;-61
2023/12/14 12:06:44;;;;;;;8.18;5.05;;;;;;;7.27;100.00;96587.22;2074265;28;20212;-60
2023/12/14 12:07:46;;;;;;;5.35;3.30;;;;;;;6.98;100.00;96591.59;2073378;28;20202;-66
2023/12/14 12:08:48;;;;;;;8.00;3.28;;;;;;;6.90;100.00;96598.78;2072760;28;20336;-66
2023/12/14 12:09:49;;;;;;;5.57;3.30;;;;;;;7.05;100.00;96592.25;2069896;28;20579;-66
2023/12/14 12:18:37;;;;;;;6.45;3.50;;;;;;;6.53;100.00;96597.28;2102536;27;20553;-59
2023/12/14 12:19:42;;;;;;;7.45;2.97;;;;;;;6.48;100.00;96591.38;2090034;28;20243;-59
2023/12/14 12:45:29;;;;;;;9.50;4.25;;;;;;;5.85;100.00;96628.50;2100727;27;20562;-68
2023/12/14 12:52:51;;;;;;;7.22;4.72;;;;;;;5.69;100.00;96625.44;2083446;28;21054;-70
